createdAt,value
2022-07-26T00:00:12.791Z,10.88
2022-07-26T00:02:47.468Z,11.30
2022-07-26T00:05:16.248Z,10.10
2022-07-26T00:07:43.040Z,9.88
2022-07-26T00:10:09.930Z,9.80
2022-07-26T00:12:37.018Z,12.85
2022-07-26T00:15:07.107Z,11.02
2022-07-26T00:17:33.908Z,11.10
2022-07-26T00:20:00.687Z,9.75
2022-07-26T00:22:36.411Z,13.20
2022-07-26T00:25:06.041Z,11.23
2022-07-26T00:27:33.076Z,9.88
2022-07-26T00:30:00.010Z,11.55
2022-07-26T00:32:26.826Z,9.82
2022-07-26T00:34:53.973Z,8.88
2022-07-26T00:37:21.202Z,12.63
2022-07-26T00:39:48.753Z,6.90
2022-07-26T00:42:15.758Z,8.65
2022-07-26T00:44:45.273Z,9.98
2022-07-26T00:47:12.890Z,9.43
2022-07-26T00:49:39.832Z,10.02
2022-07-26T00:52:07.568Z,8.05
2022-07-26T00:54:35.024Z,10.88
2022-07-26T00:57:01.879Z,7.38
2022-07-26T00:59:28.751Z,7.78
2022-07-26T01:01:55.835Z,11.93
2022-07-26T01:04:22.822Z,11.45
2022-07-26T01:06:49.795Z,14.40
2022-07-26T01:09:16.984Z,8.32
2022-07-26T01:11:43.780Z,9.95
2022-07-26T01:14:10.923Z,6.22
2022-07-26T01:16:38.263Z,9.73
2022-07-26T01:19:05.414Z,9.13
2022-07-26T01:21:33.257Z,12.18
2022-07-26T01:24:00.131Z,7.43
2022-07-26T01:26:26.905Z,10.80
2022-07-26T01:28:53.697Z,11.55
2022-07-26T01:31:20.664Z,9.50
2022-07-26T01:33:47.669Z,8.70
2022-07-26T01:36:14.615Z,11.77
2022-07-26T01:38:42.323Z,7.65
2022-07-26T01:41:09.475Z,7.00
2022-07-26T01:43:37.225Z,8.18
2022-07-26T01:46:06.354Z,8.18
2022-07-26T01:48:33.864Z,10.45
2022-07-26T01:51:01.511Z,12.65
2022-07-26T01:53:28.475Z,9.40
2022-07-26T01:55:55.314Z,12.77
2022-07-26T01:58:22.113Z,9.70
2022-07-26T02:00:49.645Z,9.30
2022-07-26T02:03:16.580Z,7.72
2022-07-26T02:05:43.433Z,9.20
2022-07-26T02:08:11.120Z,10.35
2022-07-26T02:10:57.175Z,9.70
2022-07-26T02:13:24.238Z,7.38
2022-07-26T02:15:51.078Z,9.52
2022-07-26T02:18:18.148Z,11.23
2022-07-26T02:20:44.925Z,10.63
2022-07-26T02:23:12.140Z,10.35
2022-07-26T02:25:39.110Z,8.10
2022-07-26T02:28:05.899Z,10.38
2022-07-26T02:30:32.644Z,11.98
2022-07-26T02:33:00.407Z,10.25
2022-07-26T02:35:27.343Z,8.90
2022-07-26T02:37:54.064Z,8.98
2022-07-26T02:40:20.772Z,12.32
2022-07-26T02:42:47.463Z,9.07
2022-07-26T02:45:14.177Z,10.20
2022-07-26T02:47:48.492Z,11.30
2022-07-26T02:50:19.270Z,7.65
2022-07-26T02:52:48.337Z,11.07
2022-07-26T02:55:17.807Z,10.48
2022-07-26T02:57:46.324Z,9.55
2022-07-26T03:00:18.830Z,10.32
2022-07-26T03:02:45.962Z,10.85
2022-07-26T03:05:12.832Z,9.68
2022-07-26T03:07:39.609Z,9.50
2022-07-26T03:10:07.018Z,10.88
2022-07-26T03:12:33.777Z,10.27
2022-07-26T03:15:00.489Z,15.65
2022-07-26T03:17:27.270Z,10.15
2022-07-26T03:19:53.956Z,8.20
2022-07-26T03:22:20.717Z,8.45
2022-07-26T03:24:47.464Z,9.73
2022-07-26T03:27:14.198Z,9.57
2022-07-26T03:29:40.941Z,8.13
2022-07-26T03:32:08.857Z,9.82
2022-07-26T03:34:35.741Z,9.98
2022-07-26T03:37:02.875Z,10.52
2022-07-26T03:39:29.989Z,10.45
2022-07-26T03:41:56.744Z,8.68
2022-07-26T03:44:23.485Z,10.35
2022-07-26T03:46:50.232Z,10.70
2022-07-26T03:49:17.527Z,9.35
2022-07-26T03:51:44.436Z,15.48
2022-07-26T03:54:11.699Z,11.68
2022-07-26T03:56:39.544Z,13.07
2022-07-26T03:59:08.995Z,10.20
2022-07-26T04:01:41.570Z,11.13
2022-07-26T04:04:13.184Z,10.98
2022-07-26T04:06:41.136Z,10.55
2022-07-26T04:09:08.138Z,9.90
2022-07-26T04:11:35.334Z,8.57
2022-07-26T04:14:02.500Z,11.27
2022-07-26T04:16:29.497Z,9.68
2022-07-26T04:18:56.318Z,8.38
2022-07-26T04:21:23.794Z,8.55
2022-07-26T04:23:51.698Z,9.57
2022-07-26T04:26:22.324Z,8.32
2022-07-26T04:28:49.135Z,11.00
2022-07-26T04:31:15.951Z,9.23
2022-07-26T04:33:42.767Z,11.07
2022-07-26T04:36:09.675Z,11.65
2022-07-26T04:38:36.665Z,10.82
2022-07-26T04:41:03.810Z,12.25
2022-07-26T04:43:30.736Z,9.48
2022-07-26T04:45:58.034Z,17.33
2022-07-26T04:48:25.706Z,10.45
2022-07-26T04:50:53.074Z,9.60
2022-07-26T04:53:20.130Z,9.90
2022-07-26T04:55:47.809Z,12.23
2022-07-26T04:58:14.543Z,10.63
2022-07-26T05:01:09.624Z,10.48
2022-07-26T05:03:28.660Z,11.85
2022-07-26T05:05:55.363Z,7.10
2022-07-26T05:08:22.202Z,8.65
2022-07-26T05:10:54.947Z,10.80
2022-07-26T05:13:28.725Z,10.05
2022-07-26T05:15:58.246Z,12.55
2022-07-26T05:18:25.455Z,10.00
2022-07-26T05:20:52.951Z,9.77
2022-07-26T05:23:20.483Z,10.55
2022-07-26T05:25:47.553Z,9.20
2022-07-26T05:28:14.522Z,10.55
2022-07-26T05:30:41.300Z,8.40
2022-07-26T05:33:08.132Z,12.63
2022-07-26T05:35:34.976Z,10.95
2022-07-26T05:38:16.898Z,11.38
2022-07-26T05:40:47.301Z,12.50
2022-07-26T05:43:17.068Z,15.27
2022-07-26T05:45:43.869Z,12.50
2022-07-26T05:48:10.652Z,12.50
2022-07-26T05:50:37.360Z,12.23
2022-07-26T05:53:04.046Z,18.33
2022-07-26T05:55:30.778Z,9.10
2022-07-26T05:57:57.625Z,11.23
2022-07-26T06:00:24.368Z,14.25
2022-07-26T06:02:51.087Z,10.15
2022-07-26T06:05:17.893Z,10.23
2022-07-26T06:07:44.655Z,10.60
2022-07-26T06:10:11.562Z,12.27
2022-07-26T06:12:38.314Z,12.77
2022-07-26T06:15:15.743Z,10.93
2022-07-26T06:17:43.089Z,8.38
2022-07-26T06:20:12.807Z,11.40
2022-07-26T06:22:39.615Z,10.55
2022-07-26T06:25:06.858Z,9.77
2022-07-26T06:27:33.553Z,9.95
2022-07-26T06:30:00.313Z,10.30
2022-07-26T06:32:27.151Z,11.55
2022-07-26T06:34:54.311Z,10.20
2022-07-26T06:37:21.010Z,12.55
2022-07-26T06:39:47.705Z,11.82
2022-07-26T06:42:14.421Z,11.90
2022-07-26T06:44:41.165Z,10.32
2022-07-26T06:47:07.849Z,11.40
2022-07-26T06:49:34.796Z,10.98
2022-07-26T06:52:01.528Z,9.30
2022-07-26T06:54:28.261Z,8.52
2022-07-26T06:56:55.067Z,9.93
2022-07-26T06:59:21.826Z,13.85
2022-07-26T07:01:58.399Z,9.85
2022-07-26T07:04:30.954Z,14.10
2022-07-26T07:07:04.499Z,8.93
2022-07-26T07:09:33.154Z,10.63
2022-07-26T07:12:09.402Z,11.48
2022-07-26T07:14:37.135Z,10.68
2022-07-26T07:17:03.896Z,11.45
2022-07-26T07:19:38.374Z,11.45
2022-07-26T07:22:06.320Z,11.98
2022-07-26T07:24:33.092Z,9.02
2022-07-26T07:27:01.229Z,13.40
2022-07-26T07:29:28.179Z,12.52
2022-07-26T07:31:56.502Z,14.10
2022-07-26T07:34:23.881Z,11.65
2022-07-26T07:36:51.400Z,9.55
2022-07-26T07:39:18.631Z,12.38
2022-07-26T07:41:45.994Z,10.68
2022-07-26T07:44:13.012Z,9.93
2022-07-26T07:46:40.112Z,9.68
2022-07-26T07:49:07.320Z,12.43
2022-07-26T07:51:34.441Z,7.57
2022-07-26T07:54:05.626Z,9.93
2022-07-26T07:56:33.289Z,10.48
2022-07-26T07:59:00.297Z,11.90
2022-07-26T08:01:36.367Z,13.05
2022-07-26T08:04:07.948Z,10.32
2022-07-26T08:06:34.853Z,11.85
2022-07-26T08:09:01.768Z,10.30
2022-07-26T08:11:30.808Z,12.88
2022-07-26T08:14:00.802Z,11.10
2022-07-26T08:16:27.664Z,11.20
2022-07-26T08:18:56.997Z,13.10
2022-07-26T08:21:29.155Z,13.15
2022-07-26T08:23:56.839Z,14.00
2022-07-26T08:26:24.109Z,11.00
2022-07-26T08:28:58.306Z,13.55
2022-07-26T08:31:27.839Z,12.95
2022-07-26T08:33:54.691Z,10.57
2022-07-26T08:36:21.447Z,11.95
2022-07-26T08:38:48.534Z,10.23
2022-07-26T08:41:19.739Z,10.50
2022-07-26T08:43:53.056Z,11.82
2022-07-26T08:46:26.928Z,12.98
2022-07-26T08:48:55.724Z,10.15
2022-07-26T08:51:24.574Z,14.35
2022-07-26T08:53:59.063Z,14.20
2022-07-26T08:56:28.948Z,15.60
2022-07-26T08:58:55.839Z,12.43
2022-07-26T09:01:22.886Z,13.63
2022-07-26T09:03:50.196Z,9.30
2022-07-26T09:06:20.168Z,11.35
2022-07-26T09:08:49.465Z,12.50
2022-07-26T09:11:27.076Z,12.88
2022-07-26T09:14:00.440Z,9.82
2022-07-26T09:16:28.651Z,10.93
2022-07-26T09:18:56.464Z,11.80
2022-07-26T09:21:34.373Z,12.05
2022-07-26T09:24:01.209Z,11.48
2022-07-26T09:26:28.273Z,12.07
2022-07-26T09:29:09.892Z,10.57
2022-07-26T09:31:38.388Z,10.18
2022-07-26T09:34:06.796Z,9.98
2022-07-26T09:36:33.944Z,10.32
2022-07-26T09:39:03.768Z,11.32
2022-07-26T09:41:38.383Z,12.07
2022-07-26T09:44:19.221Z,12.02
2022-07-26T09:46:57.609Z,10.68
2022-07-26T09:49:30.969Z,12.85
2022-07-26T09:52:21.524Z,11.45
2022-07-26T09:54:49.536Z,13.10
2022-07-26T09:57:21.183Z,12.45
2022-07-26T09:59:47.996Z,14.02
2022-07-26T10:02:14.964Z,14.93
2022-07-26T10:04:43.031Z,13.13
2022-07-26T10:07:10.941Z,13.68
2022-07-26T10:09:45.223Z,11.63
2022-07-26T10:12:15.550Z,12.90
2022-07-26T10:14:47.958Z,10.93
2022-07-26T10:17:32.242Z,11.25
2022-07-26T10:20:10.626Z,13.15
2022-07-26T10:22:47.034Z,18.42
2022-07-26T10:25:19.751Z,13.75
2022-07-26T10:27:50.950Z,11.48
2022-07-26T10:30:21.870Z,13.88
2022-07-26T10:32:51.474Z,10.02
2022-07-26T10:35:32.177Z,12.63
2022-07-26T10:38:11.813Z,11.27
2022-07-26T10:40:59.093Z,13.63
2022-07-26T10:43:42.719Z,9.20
2022-07-26T10:46:15.982Z,8.50
2022-07-26T10:49:04.336Z,13.20
2022-07-26T10:51:36.473Z,13.93
2022-07-26T10:54:05.635Z,11.77
2022-07-26T10:56:33.634Z,12.18
2022-07-26T10:59:01.460Z,9.73
2022-07-26T11:01:39.473Z,15.93
2022-07-26T11:04:17.782Z,10.80
2022-07-26T11:06:45.698Z,7.30
2022-07-26T11:09:12.717Z,10.40
2022-07-26T11:11:39.827Z,9.07
2022-07-26T11:14:17.571Z,7.22
2022-07-26T11:16:52.625Z,10.68
2022-07-26T11:19:21.980Z,15.48
2022-07-26T11:21:59.981Z,9.63
2022-07-26T11:24:28.020Z,11.23
2022-07-26T11:26:55.395Z,11.40
2022-07-26T11:29:39.150Z,7.93
2022-07-26T11:32:20.465Z,7.70
2022-07-26T11:35:00.343Z,8.80
2022-07-26T11:37:27.412Z,10.30
2022-07-26T11:39:54.334Z,9.05
2022-07-26T11:42:22.111Z,9.82
2022-07-26T11:44:50.318Z,12.38
2022-07-26T11:47:25.710Z,9.75
2022-07-26T11:50:12.926Z,11.05
2022-07-26T11:52:40.949Z,7.43
2022-07-26T11:55:08.523Z,7.43
2022-07-26T11:57:35.410Z,8.60
2022-07-26T12:00:02.511Z,15.05
2022-07-26T12:02:30.671Z,9.65
2022-07-26T12:05:18.604Z,10.18
2022-07-26T12:07:57.765Z,9.63
2022-07-26T12:10:24.574Z,10.07
2022-07-26T12:13:07.038Z,8.73
2022-07-26T12:15:51.001Z,11.18
2022-07-26T12:18:29.447Z,8.57
2022-07-26T12:21:03.917Z,7.53
2022-07-26T12:23:50.026Z,11.38
2022-07-26T12:26:26.135Z,8.70
2022-07-26T12:28:53.473Z,9.70
2022-07-26T12:31:30.498Z,8.38
2022-07-26T12:33:58.139Z,10.00
2022-07-26T12:36:28.419Z,7.28
2022-07-26T12:38:59.604Z,9.82
2022-07-26T12:41:33.459Z,21.35
2022-07-26T12:44:00.395Z,10.55
2022-07-26T12:46:27.346Z,9.07
2022-07-26T12:48:59.662Z,9.50
2022-07-26T12:51:27.231Z,10.20
2022-07-26T12:53:54.163Z,6.68
2022-07-26T12:56:20.896Z,11.52
2022-07-26T12:58:47.650Z,9.38
2022-07-26T13:01:14.533Z,7.63
2022-07-26T13:03:41.327Z,12.23
2022-07-26T13:06:08.147Z,6.88
2022-07-26T13:08:34.926Z,6.07
2022-07-26T13:11:01.680Z,7.45
2022-07-26T13:13:29.950Z,6.95
2022-07-26T13:15:56.722Z,5.97
2022-07-26T13:18:23.458Z,8.38
2022-07-26T13:20:50.251Z,6.85
2022-07-26T13:23:20.133Z,6.45
2022-07-26T13:25:48.787Z,12.80
2022-07-26T13:28:17.348Z,6.22
2022-07-26T13:30:45.118Z,6.57
2022-07-26T13:33:12.355Z,4.85
2022-07-26T13:35:41.238Z,6.70
2022-07-26T13:38:08.731Z,6.72
2022-07-26T13:40:36.102Z,6.13
2022-07-26T13:43:05.061Z,5.15
2022-07-26T13:45:31.766Z,7.53
2022-07-26T13:47:59.357Z,5.63
2022-07-26T13:50:28.011Z,11.43
2022-07-26T13:52:56.469Z,7.35
2022-07-26T13:55:24.408Z,5.88
2022-07-26T13:57:56.963Z,12.75
2022-07-26T14:00:26.132Z,6.60
2022-07-26T14:02:53.502Z,7.25
2022-07-26T14:05:20.518Z,9.55
2022-07-26T14:07:47.263Z,6.30
2022-07-26T14:10:14.186Z,6.32
2022-07-26T14:12:41.146Z,7.38
2022-07-26T14:15:18.000Z,5.72
2022-07-26T14:17:47.356Z,7.35
2022-07-26T14:20:14.781Z,8.07
2022-07-26T14:22:41.644Z,7.05
2022-07-26T14:25:08.750Z,7.65
2022-07-26T14:27:35.471Z,10.35
2022-07-26T14:30:02.510Z,6.35
2022-07-26T14:32:29.356Z,8.45
2022-07-26T14:34:56.077Z,7.32
2022-07-26T14:37:42.186Z,7.68
2022-07-26T14:40:10.902Z,7.07
2022-07-26T14:42:37.662Z,7.30
2022-07-26T14:45:05.035Z,8.00
2022-07-26T14:47:31.787Z,8.63
2022-07-26T14:50:02.758Z,12.48
2022-07-26T14:52:32.677Z,11.43
2022-07-26T14:54:59.425Z,8.60
2022-07-26T14:57:26.693Z,8.65
2022-07-26T14:59:53.480Z,9.07
2022-07-26T15:02:20.337Z,7.80
2022-07-26T15:04:47.232Z,8.20
2022-07-26T15:07:13.954Z,9.75
2022-07-26T15:09:40.792Z,7.82
2022-07-26T15:12:07.842Z,7.53
2022-07-26T15:14:35.136Z,6.28
2022-07-26T15:17:01.975Z,8.25
2022-07-26T15:19:28.900Z,9.20
2022-07-26T15:21:56.588Z,7.40
2022-07-26T15:24:24.367Z,9.15
2022-07-26T15:26:51.211Z,11.13
2022-07-26T15:29:17.931Z,9.20
2022-07-26T15:31:46.472Z,7.13
2022-07-26T15:34:13.699Z,8.85
2022-07-26T15:36:40.894Z,10.45
2022-07-26T15:39:23.489Z,8.68
2022-07-26T15:41:50.759Z,6.03
2022-07-26T15:44:20.098Z,10.75
2022-07-26T15:46:49.133Z,10.82
2022-07-26T15:49:17.440Z,8.45
2022-07-26T15:51:44.499Z,8.85
2022-07-26T15:54:13.682Z,8.65
2022-07-26T15:56:41.180Z,7.47
2022-07-26T15:59:08.471Z,9.20
2022-07-26T16:01:36.343Z,10.18
2022-07-26T16:04:05.212Z,6.65
2022-07-26T16:06:33.346Z,8.68
2022-07-26T16:09:16.603Z,7.28
2022-07-26T16:11:45.223Z,6.85
2022-07-26T16:14:11.918Z,9.48
2022-07-26T16:16:38.753Z,7.60
2022-07-26T16:19:05.510Z,8.25
2022-07-26T16:21:32.407Z,9.23
2022-07-26T16:24:04.442Z,7.75
2022-07-26T16:26:33.088Z,7.07
2022-07-26T16:29:00.689Z,6.95
2022-07-26T16:31:28.014Z,8.77
2022-07-26T16:33:54.850Z,7.63
2022-07-26T16:36:21.598Z,13.13
2022-07-26T16:38:48.273Z,10.43
2022-07-26T16:41:14.971Z,7.43
2022-07-26T16:43:41.730Z,12.23
2022-07-26T16:46:08.586Z,7.55
2022-07-26T16:48:35.441Z,7.95
2022-07-26T16:51:02.395Z,8.93
2022-07-26T16:53:29.093Z,8.30
2022-07-26T16:55:55.897Z,10.98
2022-07-26T16:58:22.817Z,9.82
2022-07-26T17:00:49.772Z,6.22
2022-07-26T17:03:16.894Z,7.85
2022-07-26T17:05:46.307Z,6.22
2022-07-26T17:08:13.109Z,9.07
2022-07-26T17:10:39.896Z,8.75
2022-07-26T17:13:07.011Z,10.15
2022-07-26T17:15:33.799Z,7.13
2022-07-26T17:18:00.727Z,8.65
2022-07-26T17:20:27.595Z,5.82
2022-07-26T17:22:54.388Z,6.30
2022-07-26T17:25:21.181Z,8.77
2022-07-26T17:27:48.062Z,9.50
2022-07-26T17:30:15.073Z,8.52
2022-07-26T17:32:42.263Z,9.23
2022-07-26T17:35:09.580Z,8.50
2022-07-26T17:37:36.497Z,11.18
2022-07-26T17:40:05.492Z,10.93
2022-07-26T17:42:35.045Z,10.13
2022-07-26T17:45:01.874Z,8.70
2022-07-26T17:47:30.586Z,9.95
2022-07-26T17:50:26.431Z,10.70
2022-07-26T17:52:50.143Z,8.30
2022-07-26T17:55:18.975Z,9.60
2022-07-26T17:57:47.679Z,7.05
2022-07-26T18:00:16.307Z,10.88
2022-07-26T18:02:43.101Z,7.57
2022-07-26T18:05:11.099Z,8.95
2022-07-26T18:07:38.350Z,8.75
2022-07-26T18:10:05.716Z,8.75
2022-07-26T18:12:32.510Z,8.57
2022-07-26T18:14:59.290Z,6.82
2022-07-26T18:17:26.297Z,8.55
2022-07-26T18:19:53.046Z,6.93
2022-07-26T18:22:19.747Z,6.63
2022-07-26T18:24:46.573Z,6.25
2022-07-26T18:27:13.311Z,8.70
2022-07-26T18:29:40.053Z,8.82
2022-07-26T18:32:06.997Z,6.50
2022-07-26T18:34:33.718Z,10.80
2022-07-26T18:37:00.433Z,11.40
2022-07-26T18:39:32.652Z,9.15
2022-07-26T18:42:00.566Z,6.05
2022-07-26T18:44:27.546Z,6.22
2022-07-26T18:46:56.117Z,10.23
2022-07-26T18:49:23.617Z,10.85
2022-07-26T18:52:00.696Z,8.73
2022-07-26T18:54:32.933Z,10.10
2022-07-26T18:56:59.657Z,8.75
2022-07-26T18:59:26.369Z,9.02
2022-07-26T19:01:53.346Z,12.68
2022-07-26T19:04:21.751Z,7.32
2022-07-26T19:06:49.196Z,13.82
2022-07-26T19:09:16.640Z,9.60
2022-07-26T19:11:45.737Z,6.60
2022-07-26T19:14:13.012Z,11.80
2022-07-26T19:16:39.905Z,9.88
2022-07-26T19:19:06.712Z,11.07
2022-07-26T19:21:33.434Z,8.80
2022-07-26T19:24:00.162Z,9.82
2022-07-26T19:26:27.494Z,10.48
2022-07-26T19:28:54.419Z,10.52
2022-07-26T19:31:22.031Z,12.85
2022-07-26T19:33:48.844Z,9.68
2022-07-26T19:36:15.894Z,7.72
2022-07-26T19:38:52.574Z,8.98
2022-07-26T19:41:19.939Z,6.20
2022-07-26T19:43:46.681Z,7.20
2022-07-26T19:46:13.619Z,7.63
2022-07-26T19:48:40.568Z,7.90
2022-07-26T19:51:07.337Z,13.25
2022-07-26T19:53:34.140Z,9.93
2022-07-26T19:56:00.808Z,6.45
2022-07-26T19:58:29.119Z,11.32
2022-07-26T20:00:55.947Z,9.75
2022-07-26T20:03:22.714Z,7.40
2022-07-26T20:05:49.713Z,8.13
2022-07-26T20:08:16.661Z,5.72
2022-07-26T20:10:43.368Z,7.57
2022-07-26T20:13:10.119Z,13.20
2022-07-26T20:15:36.880Z,7.72
2022-07-26T20:18:04.648Z,8.90
2022-07-26T20:20:31.741Z,9.05
2022-07-26T20:22:58.569Z,10.40
2022-07-26T20:25:25.386Z,11.07
2022-07-26T20:27:52.871Z,18.83
2022-07-26T20:30:19.951Z,12.40
2022-07-26T20:32:46.739Z,8.70
2022-07-26T20:35:13.442Z,8.98
2022-07-26T20:37:41.557Z,18.42
2022-07-26T20:40:09.293Z,14.55
2022-07-26T20:42:36.680Z,13.57
2022-07-26T20:45:11.470Z,20.65
2022-07-26T20:47:42.847Z,13.77
2022-07-26T20:50:11.374Z,15.18
2022-07-26T20:52:38.429Z,17.48
2022-07-26T20:55:05.792Z,24.52
2022-07-26T20:57:32.509Z,24.23
2022-07-26T20:59:59.210Z,13.07
2022-07-26T21:02:26.182Z,21.83
2022-07-26T21:04:53.055Z,19.98
2022-07-26T21:07:19.832Z,18.00
2022-07-26T21:09:46.643Z,20.55
2022-07-26T21:12:13.387Z,17.38
2022-07-26T21:14:40.163Z,17.02
2022-07-26T21:17:11.681Z,20.83
2022-07-26T21:19:39.332Z,19.42
2022-07-26T21:22:06.607Z,22.27
2022-07-26T21:24:35.066Z,18.73
2022-07-26T21:27:03.306Z,17.52
2022-07-26T21:29:30.446Z,16.10
2022-07-26T21:31:57.449Z,15.18
2022-07-26T21:34:27.036Z,16.02
2022-07-26T21:36:54.160Z,14.80
2022-07-26T21:39:21.139Z,14.38
2022-07-26T21:41:48.786Z,15.07
2022-07-26T21:44:15.552Z,13.32
2022-07-26T21:46:42.300Z,10.73
2022-07-26T21:49:09.343Z,11.02
2022-07-26T21:51:36.440Z,9.02
2022-07-26T21:54:03.242Z,6.57
2022-07-26T21:56:29.996Z,8.20
2022-07-26T21:58:56.808Z,8.07
2022-07-26T22:01:23.588Z,6.85
2022-07-26T22:03:50.299Z,6.43
2022-07-26T22:06:17.178Z,4.07
2022-07-26T22:08:44.653Z,4.88
2022-07-26T22:11:11.596Z,3.97
2022-07-26T22:13:38.879Z,2.33
2022-07-26T22:16:07.176Z,5.82
2022-07-26T22:18:33.970Z,3.03
2022-07-26T22:21:01.054Z,2.13
2022-07-26T22:23:31.226Z,3.35
2022-07-26T22:26:02.158Z,2.15
2022-07-26T22:28:30.372Z,4.95
2022-07-26T22:30:57.308Z,5.10
2022-07-26T22:33:25.275Z,7.78
2022-07-26T22:35:52.829Z,4.57
2022-07-26T22:38:19.616Z,2.67
2022-07-26T22:40:46.609Z,4.80
2022-07-26T22:43:14.446Z,5.05
2022-07-26T22:45:41.400Z,3.90
2022-07-26T22:48:09.427Z,4.97
2022-07-26T22:50:36.677Z,4.97
2022-07-26T22:53:03.632Z,3.83
2022-07-26T22:55:31.454Z,4.45
2022-07-26T22:57:58.376Z,5.38
2022-07-26T23:00:25.674Z,3.70
2022-07-26T23:02:52.609Z,4.63
2022-07-26T23:05:19.635Z,5.28
2022-07-26T23:07:47.835Z,4.53
2022-07-26T23:10:15.608Z,3.92
2022-07-26T23:12:42.533Z,3.92
2022-07-26T23:15:10.081Z,4.30
2022-07-26T23:17:37.755Z,3.30
2022-07-26T23:20:06.416Z,3.53
2022-07-26T23:22:33.798Z,4.35
2022-07-26T23:25:00.562Z,2.72
2022-07-26T23:27:27.397Z,2.83
2022-07-26T23:29:54.142Z,2.90
2022-07-26T23:32:20.830Z,3.88
2022-07-26T23:34:47.559Z,2.85
2022-07-26T23:37:14.305Z,3.38
2022-07-26T23:39:41.100Z,4.30
2022-07-26T23:42:07.996Z,5.22
2022-07-26T23:44:34.847Z,3.35
2022-07-26T23:47:01.808Z,3.28
2022-07-26T23:49:28.840Z,4.10
2022-07-26T23:51:55.638Z,5.10
2022-07-26T23:54:22.379Z,3.85
2022-07-26T23:56:49.080Z,3.33
2022-07-26T23:59:16.034Z,4.88
